Warr Acres, Oklahoma
Current Conditions -  °F | °C
As of 6:53 AM on Wednesday 22 Oct 2014 (Local Time) from KPWA Reporting Station
Haze Haze  
Wind Chill: 57°   Ceiling: Unl
Heat Index: 57°   Visibility: 5mi
Dew Point: 55°   Wind: 7mph
Humidity: 93%   Direction: 180°S
Pressure: 30.11"   Gusts: NA
Location:  35.5369°N, 97.6228°W
Report Text: KPWA 221153Z AUTO 18006KT 5SM BR CLR 14/13 A3011 RMK AO2 SLP189 T01390128 10183 20139 53012
Loading
Personal Weather Stations






























Interactive Weather Map
Tropical Storm Tracking
New forecast layout! Learn more

10-Day Weather Forecast

Advertisements
Track Severe Weather on mobile